createdAt,value
2019-03-03T00:00:23.206Z,6.97
2019-03-03T00:02:51.434Z,7.01
2019-03-03T00:05:19.721Z,7.05
2019-03-03T00:07:48.014Z,7.08
2019-03-03T00:10:16.375Z,7.08
2019-03-03T00:12:44.670Z,7.12
2019-03-03T00:15:13.025Z,7.10
2019-03-03T00:17:41.308Z,7.11
2019-03-03T00:20:13.863Z,7.14
2019-03-03T00:22:42.136Z,7.17
2019-03-03T00:25:12.170Z,7.19
2019-03-03T00:27:40.449Z,7.20
2019-03-03T00:30:14.616Z,7.16
2019-03-03T00:32:42.885Z,7.23
2019-03-03T00:35:11.181Z,7.20
2019-03-03T00:37:41.099Z,7.19
2019-03-03T00:40:13.510Z,7.24
2019-03-03T00:42:49.128Z,7.25
2019-03-03T00:45:34.115Z,7.29
2019-03-03T00:48:04.027Z,7.27
2019-03-03T00:50:37.166Z,7.33
2019-03-03T00:53:23.215Z,7.35
2019-03-03T00:55:53.140Z,7.39
2019-03-03T00:58:25.476Z,7.43
2019-03-03T01:00:55.441Z,7.46
2019-03-03T01:03:25.359Z,7.50
2019-03-03T01:05:55.273Z,7.52
2019-03-03T01:08:25.186Z,7.56
2019-03-03T01:10:55.097Z,7.54
2019-03-03T01:13:25.015Z,7.57
2019-03-03T01:16:11.008Z,7.66
2019-03-03T01:18:40.941Z,7.65
2019-03-03T01:21:10.862Z,7.67
2019-03-03T01:23:49.809Z,7.71
2019-03-03T01:26:18.098Z,7.79
2019-03-03T01:28:46.375Z,7.79
2019-03-03T01:31:14.651Z,7.80
2019-03-03T01:33:42.925Z,7.84
2019-03-03T01:36:11.197Z,7.90
2019-03-03T01:38:39.505Z,7.93
2019-03-03T01:41:07.782Z,8.01
2019-03-03T01:43:36.092Z,8.03
2019-03-03T01:46:04.363Z,8.08
2019-03-03T01:48:32.657Z,8.10
2019-03-03T01:51:00.951Z,8.12
2019-03-03T01:53:29.232Z,8.14
2019-03-03T01:55:57.525Z,8.18
2019-03-03T01:58:25.808Z,8.21
2019-03-03T02:00:54.093Z,8.24
2019-03-03T02:03:22.541Z,8.32
2019-03-03T02:05:50.901Z,8.36
2019-03-03T02:08:19.171Z,8.41
2019-03-03T02:10:47.450Z,8.45
2019-03-03T02:13:15.729Z,8.45
2019-03-03T02:15:44.020Z,8.45
2019-03-03T02:18:12.290Z,8.48
2019-03-03T02:20:40.579Z,8.55
2019-03-03T02:23:08.854Z,8.54
2019-03-03T02:25:37.130Z,8.54
2019-03-03T02:28:05.427Z,8.55
2019-03-03T02:30:33.775Z,8.59
2019-03-03T02:33:02.067Z,8.57
2019-03-03T02:35:30.829Z,8.65
2019-03-03T02:37:59.110Z,8.65
2019-03-03T02:40:27.388Z,8.66
2019-03-03T02:42:55.665Z,8.67
2019-03-03T02:45:23.950Z,8.69
2019-03-03T02:47:52.230Z,8.72
2019-03-03T02:50:20.500Z,8.73
2019-03-03T02:52:48.774Z,8.76
2019-03-03T02:55:17.437Z,8.74
2019-03-03T02:57:45.765Z,8.76
2019-03-03T03:00:21.447Z,8.79
2019-03-03T03:02:51.085Z,8.77
2019-03-03T03:05:22.648Z,8.83
2019-03-03T03:07:52.564Z,8.76
2019-03-03T03:10:22.459Z,8.85
2019-03-03T03:12:52.380Z,8.85
2019-03-03T03:15:25.162Z,8.83
2019-03-03T03:18:03.857Z,8.85
2019-03-03T03:20:36.446Z,8.90
2019-03-03T03:23:06.377Z,8.91
2019-03-03T03:25:39.084Z,8.96
2019-03-03T03:28:09.017Z,8.97
2019-03-03T03:30:53.689Z,8.97
2019-03-03T03:33:26.319Z,8.99
2019-03-03T03:36:02.252Z,8.97
2019-03-03T03:38:50.242Z,9.03
2019-03-03T03:41:23.048Z,9.04
2019-03-03T03:43:52.988Z,9.03
2019-03-03T03:46:22.924Z,9.03
2019-03-03T03:49:01.495Z,9.04
2019-03-03T03:51:43.499Z,9.11
2019-03-03T03:54:13.409Z,9.10
2019-03-03T03:56:52.073Z,9.12
2019-03-03T03:59:21.992Z,9.06
2019-03-03T04:01:51.909Z,9.09
2019-03-03T04:04:24.534Z,9.09
2019-03-03T04:06:57.114Z,9.13
2019-03-03T04:09:27.051Z,9.10
2019-03-03T04:12:05.508Z,9.12
2019-03-03T04:14:51.611Z,9.14
2019-03-03T04:17:37.443Z,9.15
2019-03-03T04:20:11.769Z,9.14
2019-03-03T04:22:41.690Z,9.16
2019-03-03T04:25:14.033Z,9.05
2019-03-03T04:27:46.644Z,9.14
2019-03-03T04:30:16.555Z,9.13
2019-03-03T04:32:52.313Z,9.15
2019-03-03T04:35:24.997Z,9.18
2019-03-03T04:37:57.549Z,9.21
2019-03-03T04:40:27.473Z,9.23
2019-03-03T04:43:02.841Z,9.25
2019-03-03T04:48:39.350Z,9.25
2019-03-03T04:51:09.245Z,9.23
2019-03-03T04:53:45.161Z,9.29
2019-03-03T04:56:17.494Z,9.21
2019-03-03T04:58:47.403Z,9.21
2019-03-03T05:01:19.983Z,9.17
2019-03-03T05:03:50.316Z,9.17
2019-03-03T05:06:25.680Z,9.15
2019-03-03T05:08:58.279Z,9.15
2019-03-03T05:12:05.920Z,9.08
2019-03-03T05:14:35.851Z,9.04
2019-03-03T05:17:14.489Z,8.96
2019-03-03T05:19:44.395Z,8.92
2019-03-03T05:22:12.656Z,8.94
2019-03-03T05:24:40.949Z,8.94
2019-03-03T05:27:09.207Z,8.92
2019-03-03T05:29:37.498Z,8.93
2019-03-03T05:32:05.767Z,8.91
2019-03-03T05:34:34.069Z,8.88
2019-03-03T05:37:02.340Z,8.87
2019-03-03T05:39:30.607Z,8.83
2019-03-03T05:41:58.891Z,8.78
2019-03-03T05:44:27.189Z,8.78
2019-03-03T05:46:55.462Z,8.75
2019-03-03T05:49:23.728Z,8.71
2019-03-03T05:51:52.017Z,8.68
2019-03-03T05:54:20.277Z,8.71
2019-03-03T05:56:48.589Z,8.69
2019-03-03T05:59:16.866Z,8.67
2019-03-03T06:01:45.126Z,8.65
2019-03-03T06:04:13.418Z,8.64
2019-03-03T06:06:42.157Z,8.58
2019-03-03T06:09:10.434Z,8.59
2019-03-03T06:11:38.724Z,8.52
2019-03-03T06:14:07.012Z,8.53
2019-03-03T06:16:35.292Z,8.50
2019-03-03T06:19:03.596Z,8.49
2019-03-03T06:21:31.882Z,8.48
2019-03-03T06:24:00.181Z,8.49
2019-03-03T06:26:28.462Z,8.43
2019-03-03T06:28:56.740Z,8.45
2019-03-03T06:31:25.028Z,8.42
2019-03-03T06:33:53.334Z,8.42
2019-03-03T06:36:21.630Z,8.40
2019-03-03T06:38:50.806Z,8.41
2019-03-03T06:41:19.102Z,8.40
2019-03-03T06:43:47.390Z,8.40
2019-03-03T06:46:15.662Z,8.41
2019-03-03T06:48:43.948Z,8.40
2019-03-03T06:51:12.233Z,8.39
2019-03-03T06:53:40.514Z,8.37
2019-03-03T06:56:08.790Z,8.39
2019-03-03T06:58:37.069Z,8.38
2019-03-03T07:01:05.346Z,8.40
2019-03-03T07:03:33.635Z,8.40
2019-03-03T07:06:01.925Z,8.41
2019-03-03T07:08:30.206Z,8.43
2019-03-03T07:10:58.485Z,8.43
2019-03-03T07:13:26.774Z,8.42
2019-03-03T07:15:55.053Z,8.45
2019-03-03T07:18:23.333Z,8.44
2019-03-03T07:20:51.612Z,8.47
2019-03-03T07:23:19.893Z,8.48
2019-03-03T07:25:48.178Z,8.46
2019-03-03T07:28:17.279Z,8.48
2019-03-03T07:30:45.605Z,8.47
2019-03-03T07:33:15.464Z,8.50
2019-03-03T07:35:43.818Z,8.50
2019-03-03T07:38:12.149Z,8.52
2019-03-03T07:40:40.415Z,8.49
2019-03-03T07:43:08.693Z,8.52
2019-03-03T07:45:36.961Z,8.51
2019-03-03T07:48:05.369Z,8.53
2019-03-03T07:50:33.636Z,8.50
2019-03-03T07:53:01.900Z,8.56
2019-03-03T07:55:30.194Z,8.55
2019-03-03T07:57:58.473Z,8.54
2019-03-03T08:00:26.749Z,8.57
2019-03-03T08:02:55.036Z,8.57
2019-03-03T08:05:23.327Z,8.59
2019-03-03T08:07:51.619Z,8.61
2019-03-03T08:10:19.905Z,8.60
2019-03-03T08:12:48.209Z,8.64
2019-03-03T08:15:19.424Z,8.66
2019-03-03T08:17:47.696Z,8.68
2019-03-03T08:20:16.153Z,8.67
2019-03-03T08:22:44.463Z,8.70
2019-03-03T08:25:13.416Z,8.71
2019-03-03T08:27:41.666Z,8.72
2019-03-03T08:30:17.075Z,8.71
2019-03-03T08:32:45.366Z,8.72
2019-03-03T08:35:16.835Z,8.73
2019-03-03T08:37:45.139Z,8.73
2019-03-03T08:40:13.513Z,8.78
2019-03-03T08:42:43.448Z,8.78
2019-03-03T08:45:25.207Z,8.80
2019-03-03T08:47:57.773Z,8.83
2019-03-03T08:50:43.612Z,8.82
2019-03-03T08:53:25.246Z,8.84
2019-03-03T08:56:06.988Z,8.87
2019-03-03T08:58:39.624Z,8.88
2019-03-03T09:01:25.595Z,8.93
2019-03-03T09:04:10.301Z,8.94
2019-03-03T09:06:52.250Z,8.97
2019-03-03T09:09:22.166Z,8.94
2019-03-03T09:12:07.782Z,8.95
2019-03-03T09:14:40.094Z,8.96
2019-03-03T09:17:10.038Z,8.94
2019-03-03T09:19:45.744Z,8.95
2019-03-03T09:22:15.654Z,8.89
2019-03-03T09:24:48.478Z,8.89
2019-03-03T09:27:18.408Z,8.91
2019-03-03T09:29:48.355Z,8.91
2019-03-03T09:32:18.282Z,8.92
2019-03-03T09:35:04.368Z,8.97
2019-03-03T09:37:39.680Z,8.98
2019-03-03T09:40:13.878Z,9.01
2019-03-03T09:42:59.653Z,8.98
2019-03-03T09:45:41.634Z,8.98
2019-03-03T09:48:11.563Z,9.02
2019-03-03T09:50:56.278Z,9.02
2019-03-03T09:53:37.977Z,9.06
2019-03-03T09:56:07.897Z,9.08
2019-03-03T09:58:40.235Z,9.04
2019-03-03T10:01:18.950Z,9.06
2019-03-03T10:03:50.005Z,9.10
2019-03-03T10:06:28.519Z,9.13
2019-03-03T10:09:14.533Z,9.14
2019-03-03T10:11:44.476Z,9.15
2019-03-03T10:14:20.343Z,9.23
2019-03-03T10:16:50.277Z,9.15
2019-03-03T10:19:25.930Z,9.15
2019-03-03T10:22:04.637Z,9.18
2019-03-03T10:24:40.400Z,9.14
2019-03-03T10:27:13.114Z,9.17
2019-03-03T10:29:43.050Z,9.16
2019-03-03T10:32:18.642Z,9.16
2019-03-03T10:34:54.527Z,9.17
2019-03-03T10:37:39.229Z,9.16
2019-03-03T10:40:10.276Z,9.16
2019-03-03T10:42:42.651Z,9.15
2019-03-03T10:45:12.652Z,9.18
2019-03-03T10:47:54.716Z,9.21
2019-03-03T10:50:28.162Z,9.31
2019-03-03T10:53:04.177Z,9.33
2019-03-03T10:55:34.100Z,9.35
2019-03-03T10:58:04.046Z,9.41
2019-03-03T11:00:33.978Z,9.47
2019-03-03T11:03:12.451Z,9.47
2019-03-03T11:05:51.204Z,9.52
2019-03-03T11:08:24.097Z,9.49
2019-03-03T11:11:02.870Z,9.44
2019-03-03T11:13:41.325Z,9.49
2019-03-03T11:16:20.076Z,9.53
2019-03-03T11:19:05.911Z,9.63
2019-03-03T11:21:38.838Z,9.70
2019-03-03T11:24:11.429Z,9.51
2019-03-03T11:26:54.163Z,9.51
2019-03-03T11:29:24.084Z,9.45
2019-03-03T11:31:56.903Z,9.39
2019-03-03T11:34:26.889Z,9.41
2019-03-03T11:36:56.814Z,9.51
2019-03-03T11:39:26.725Z,9.42
2019-03-03T11:41:59.334Z,9.52
2019-03-03T11:44:45.598Z,9.52
2019-03-03T11:47:18.191Z,9.62
2019-03-03T11:50:05.904Z,9.57
2019-03-03T11:52:38.870Z,9.58
2019-03-03T11:55:09.827Z,9.47
2019-03-03T11:57:42.389Z,9.38
2019-03-03T12:00:18.474Z,9.40
2019-03-03T12:02:54.042Z,9.44
2019-03-03T12:05:37.461Z,9.48
2019-03-03T12:08:13.018Z,9.53
2019-03-03T12:10:45.648Z,9.51
2019-03-03T12:13:18.250Z,9.45
2019-03-03T12:15:51.104Z,9.41
2019-03-03T12:18:21.010Z,9.46
2019-03-03T12:20:59.943Z,9.41
2019-03-03T12:23:32.269Z,9.36
2019-03-03T12:26:02.197Z,9.44
2019-03-03T12:28:48.416Z,9.44
2019-03-03T12:31:30.400Z,9.47
2019-03-03T12:34:16.335Z,9.47
2019-03-03T12:37:02.176Z,9.46
2019-03-03T12:39:44.053Z,9.49
2019-03-03T12:42:29.884Z,9.57
2019-03-03T12:44:59.790Z,9.58
2019-03-03T12:47:41.783Z,9.68
2019-03-03T12:50:18.771Z,9.70
2019-03-03T12:53:04.634Z,9.76
2019-03-03T12:55:40.338Z,9.83
2019-03-03T12:58:12.897Z,9.96
2019-03-03T13:00:51.571Z,10.00
2019-03-03T13:03:30.524Z,10.09
2019-03-03T13:06:12.268Z,9.91
2019-03-03T13:08:59.315Z,9.98
2019-03-03T13:11:22.730Z,9.93
2019-03-03T13:14:08.552Z,9.89
2019-03-03T13:16:38.453Z,9.84
2019-03-03T13:19:14.326Z,9.87
2019-03-03T13:21:49.638Z,9.93
2019-03-03T13:24:19.544Z,9.91
2019-03-03T13:26:57.994Z,9.87
2019-03-03T13:29:27.929Z,9.86
2019-03-03T13:31:57.827Z,9.89
2019-03-03T13:34:27.751Z,9.86
2019-03-03T13:37:12.542Z,9.87
2019-03-03T13:39:51.035Z,9.90
2019-03-03T13:42:23.841Z,9.93
2019-03-03T13:44:52.142Z,9.97
2019-03-03T13:47:20.399Z,10.00
2019-03-03T13:49:48.675Z,9.90
2019-03-03T13:52:16.956Z,9.88
2019-03-03T13:54:45.258Z,9.82
2019-03-03T13:57:13.615Z,9.84
2019-03-03T13:59:41.975Z,9.88
2019-03-03T14:02:10.263Z,9.82
2019-03-03T14:04:38.551Z,9.86
2019-03-03T14:07:06.832Z,9.92
2019-03-03T14:09:35.108Z,9.93
2019-03-03T14:12:03.387Z,9.92
2019-03-03T14:14:31.674Z,9.90
2019-03-03T14:16:59.956Z,9.90
2019-03-03T14:19:28.224Z,9.93
2019-03-03T14:21:56.793Z,9.92
2019-03-03T14:24:25.074Z,9.94
2019-03-03T14:26:53.354Z,9.87
2019-03-03T14:29:21.630Z,9.85
2019-03-03T14:31:49.928Z,9.85
2019-03-03T14:34:18.222Z,9.85
2019-03-03T14:36:46.511Z,9.80
2019-03-03T14:39:14.869Z,9.79
2019-03-03T14:41:43.138Z,9.76
2019-03-03T14:44:11.415Z,9.78
2019-03-03T14:46:39.717Z,9.76
2019-03-03T14:49:07.988Z,9.72
2019-03-03T14:51:36.268Z,9.69
2019-03-03T14:54:04.592Z,9.67
2019-03-03T14:56:32.880Z,9.80
2019-03-03T14:59:01.149Z,9.79
2019-03-03T15:01:29.429Z,9.76
2019-03-03T15:03:57.698Z,9.82
2019-03-03T15:06:25.978Z,9.86
2019-03-03T15:08:54.271Z,9.91
2019-03-03T15:11:22.589Z,10.00
2019-03-03T15:13:50.863Z,9.94
2019-03-03T15:16:19.135Z,10.03
2019-03-03T15:18:49.056Z,9.99
2019-03-03T15:21:24.791Z,9.90
2019-03-03T15:23:48.571Z,9.88
2019-03-03T15:26:16.838Z,9.90
2019-03-03T15:28:45.112Z,9.93
2019-03-03T15:31:13.380Z,9.95
2019-03-03T15:33:41.659Z,9.87
2019-03-03T15:36:09.931Z,9.83
2019-03-03T15:38:38.199Z,9.78
2019-03-03T15:41:06.544Z,9.79
2019-03-03T15:43:34.825Z,9.70
2019-03-03T15:46:03.171Z,9.72
2019-03-03T15:48:31.387Z,9.74
2019-03-03T15:50:59.691Z,9.68
2019-03-03T15:53:27.948Z,9.78
2019-03-03T15:55:56.220Z,9.64
2019-03-03T15:58:24.512Z,9.73
2019-03-03T16:00:52.777Z,9.74
2019-03-03T16:03:21.045Z,9.68
2019-03-03T16:05:49.326Z,9.73
2019-03-03T16:08:17.610Z,9.63
2019-03-03T16:10:45.889Z,9.57
2019-03-03T16:13:14.172Z,9.58
2019-03-03T16:15:42.463Z,9.67
2019-03-03T16:18:10.738Z,9.53
2019-03-03T16:20:39.005Z,9.52
2019-03-03T16:23:07.275Z,9.57
2019-03-03T16:25:35.551Z,9.59
2019-03-03T16:28:03.828Z,9.66
2019-03-03T16:30:32.091Z,9.65
2019-03-03T16:33:00.383Z,9.70
2019-03-03T16:35:28.673Z,9.59
2019-03-03T16:37:56.936Z,9.60
2019-03-03T16:40:25.962Z,9.60
2019-03-03T16:42:55.098Z,9.69
2019-03-03T16:45:23.372Z,9.74
2019-03-03T16:47:51.648Z,9.72
2019-03-03T16:50:21.950Z,9.72
2019-03-03T16:52:50.225Z,9.67
2019-03-03T16:55:19.336Z,9.68
2019-03-03T16:57:47.676Z,9.73
2019-03-03T17:00:25.507Z,9.73
2019-03-03T17:02:53.771Z,9.74
2019-03-03T17:05:26.585Z,9.73
2019-03-03T17:07:54.881Z,9.73
2019-03-03T17:10:23.146Z,9.76
2019-03-03T17:12:51.437Z,9.75
2019-03-03T17:15:24.324Z,9.78
2019-03-03T17:17:52.605Z,9.75
2019-03-03T17:20:21.051Z,9.79
2019-03-03T17:22:49.342Z,9.81
2019-03-03T17:25:20.212Z,9.80
2019-03-03T17:27:48.581Z,9.85
2019-03-03T17:30:21.356Z,9.90
2019-03-03T17:32:49.614Z,9.93
2019-03-03T17:35:17.960Z,9.96
2019-03-03T17:37:46.243Z,10.02
2019-03-03T17:40:16.471Z,10.04
2019-03-03T17:42:44.912Z,10.05
2019-03-03T17:45:15.330Z,10.06
2019-03-03T17:47:43.605Z,10.05
2019-03-03T17:50:14.483Z,10.05
2019-03-03T17:52:44.856Z,10.10
2019-03-03T17:55:14.459Z,10.07
2019-03-03T17:57:42.746Z,10.11
2019-03-03T18:00:13.673Z,10.14
2019-03-03T18:02:41.950Z,10.11
2019-03-03T18:05:10.236Z,10.11
2019-03-03T18:07:38.547Z,10.13
2019-03-03T18:10:09.728Z,10.13
2019-03-03T18:12:38.163Z,10.18
2019-03-03T18:15:08.670Z,10.14
2019-03-03T18:17:36.953Z,10.12
2019-03-03T18:20:08.627Z,10.16
2019-03-03T18:22:36.910Z,10.17
2019-03-03T18:25:06.322Z,10.19
2019-03-03T18:27:34.640Z,10.21
2019-03-03T18:30:03.077Z,10.14
2019-03-03T18:32:31.350Z,10.11
2019-03-03T18:34:59.634Z,10.11
2019-03-03T18:37:27.905Z,10.12
2019-03-03T18:39:56.355Z,10.15
2019-03-03T18:42:24.725Z,10.09
2019-03-03T18:44:53.004Z,10.09
2019-03-03T18:47:21.294Z,10.15
2019-03-03T18:49:49.574Z,10.12
2019-03-03T18:52:17.859Z,10.12
2019-03-03T18:54:46.157Z,10.12
2019-03-03T18:57:14.450Z,10.11
2019-03-03T18:59:42.774Z,10.12
2019-03-03T19:02:11.128Z,10.12
2019-03-03T19:04:39.405Z,10.12
2019-03-03T19:07:07.689Z,10.12
2019-03-03T19:09:36.010Z,10.12
2019-03-03T19:12:04.236Z,10.09
2019-03-03T19:14:32.520Z,10.07
2019-03-03T19:17:00.802Z,10.07
2019-03-03T19:19:29.092Z,10.11
2019-03-03T19:21:57.367Z,10.14
2019-03-03T19:24:25.634Z,10.10
2019-03-03T19:26:53.911Z,10.12
2019-03-03T19:29:22.212Z,10.12
2019-03-03T19:31:50.497Z,10.12
2019-03-03T19:34:18.770Z,10.10
2019-03-03T19:36:47.081Z,10.11
2019-03-03T19:39:15.424Z,10.08
2019-03-03T19:41:43.713Z,10.08
2019-03-03T19:44:11.989Z,10.07
2019-03-03T19:46:40.291Z,10.05
2019-03-03T19:49:08.572Z,10.06
2019-03-03T19:51:36.861Z,10.05
2019-03-03T19:54:05.201Z,10.01
2019-03-03T19:56:33.481Z,10.02
2019-03-03T19:59:01.773Z,10.02
2019-03-03T20:01:30.720Z,10.00
2019-03-03T20:03:59.012Z,10.00
2019-03-03T20:06:27.287Z,10.04
2019-03-03T20:08:55.580Z,10.01
2019-03-03T20:11:23.857Z,10.03
2019-03-03T20:13:52.135Z,10.02
2019-03-03T20:16:20.407Z,10.03
2019-03-03T20:18:48.694Z,10.01
2019-03-03T20:21:16.962Z,9.99
2019-03-03T20:23:45.244Z,9.99
2019-03-03T20:26:13.529Z,9.96
2019-03-03T20:28:41.797Z,9.98
2019-03-03T20:31:10.145Z,9.99
2019-03-03T20:33:39.320Z,10.00
2019-03-03T20:36:07.619Z,10.00
2019-03-03T20:38:36.137Z,9.99
2019-03-03T20:41:04.412Z,10.00
2019-03-03T20:43:32.696Z,10.00
2019-03-03T20:46:00.982Z,9.97
2019-03-03T20:48:29.248Z,9.98
2019-03-03T20:50:57.537Z,9.96
2019-03-03T20:53:25.804Z,9.97
2019-03-03T20:55:54.110Z,9.97
2019-03-03T20:58:22.385Z,9.96
2019-03-03T21:00:50.667Z,9.95
2019-03-03T21:03:18.942Z,9.91
2019-03-03T21:05:47.231Z,9.94
2019-03-03T21:08:15.512Z,9.93
2019-03-03T21:10:43.796Z,9.89
2019-03-03T21:13:12.290Z,9.89
2019-03-03T21:15:40.637Z,9.88
2019-03-03T21:18:08.953Z,9.85
2019-03-03T21:20:37.237Z,9.86
2019-03-03T21:23:05.523Z,9.87
2019-03-03T21:25:33.828Z,9.84
2019-03-03T21:28:02.106Z,9.87
2019-03-03T21:30:30.482Z,9.86
2019-03-03T21:32:58.751Z,9.86
2019-03-03T21:35:27.047Z,9.85
2019-03-03T21:37:55.318Z,9.85
2019-03-03T21:40:27.202Z,9.85
2019-03-03T21:42:55.564Z,9.85
2019-03-03T21:45:27.607Z,9.89
2019-03-03T21:47:56.160Z,9.88
2019-03-03T21:50:25.774Z,9.86
2019-03-03T21:52:54.111Z,9.82
2019-03-03T21:55:22.485Z,9.79
2019-03-03T21:57:50.767Z,9.83
2019-03-03T22:00:30.572Z,9.81
2019-03-03T22:02:58.914Z,9.75
2019-03-03T22:05:27.137Z,9.75
2019-03-03T22:07:55.482Z,9.76
2019-03-03T22:10:29.566Z,9.80
2019-03-03T22:12:59.189Z,9.76
2019-03-03T22:15:27.498Z,9.77
2019-03-03T22:17:55.863Z,9.75
2019-03-03T22:20:24.164Z,9.78
2019-03-03T22:22:52.447Z,9.76
2019-03-03T22:25:20.730Z,9.70
2019-03-03T22:27:49.013Z,9.67
2019-03-03T22:30:19.613Z,9.65
2019-03-03T22:32:47.963Z,9.66
2019-03-03T22:35:16.249Z,9.65
2019-03-03T22:37:44.782Z,9.68
2019-03-03T22:40:15.184Z,9.66
2019-03-03T22:42:43.461Z,9.65
2019-03-03T22:45:13.862Z,9.68
2019-03-03T22:47:42.144Z,9.65
2019-03-03T22:50:12.878Z,9.69
2019-03-03T22:52:41.176Z,9.70
2019-03-03T22:55:11.587Z,9.64
2019-03-03T22:57:39.868Z,9.63
2019-03-03T23:00:13.974Z,9.62
2019-03-03T23:02:42.328Z,9.66
2019-03-03T23:05:16.508Z,9.63
2019-03-03T23:07:47.990Z,9.65
2019-03-03T23:10:22.336Z,9.61
2019-03-03T23:12:53.799Z,9.62
2019-03-03T23:15:41.489Z,9.63
2019-03-03T23:18:27.817Z,9.62
2019-03-03T23:21:30.453Z,9.60
2019-03-03T23:24:25.798Z,9.58
2019-03-03T23:26:54.091Z,9.65
2019-03-03T23:29:22.403Z,9.65
2019-03-03T23:31:50.684Z,9.66
2019-03-03T23:34:18.962Z,9.64
2019-03-03T23:36:47.276Z,9.73
2019-03-03T23:39:15.552Z,9.72
2019-03-03T23:41:43.846Z,9.69
2019-03-03T23:44:12.173Z,9.70
2019-03-03T23:46:40.414Z,9.69
2019-03-03T23:49:08.698Z,9.72
2019-03-03T23:51:37.006Z,9.74
2019-03-03T23:54:05.289Z,9.74
2019-03-03T23:56:33.590Z,9.76
2019-03-03T23:59:01.875Z,9.77
